Malaviya Twenty — AUEV — position and weather

sailwx.info

Track history (hours):
 
Tides and Currents Weather Stations Pressure Air Temp Water Temp Dewpoint Dewpoint Depression Visibility Wind Speed Wind Dir Waves Ship Positions

Malaviya Twenty

Last reported at 2015-Aug-31 03:28 UTC. Time now 2015-Sep-01 01:50 UTC.
Position N 53°22' E 001°47'.

Length 72 m; draft 4.2 m.

Type: Ship. MMSI: 419504000.

Date/timePositionNaut miles runAvg speedWind from/ knotsBaromVisibWave heightAir tempDewpointWater temp
2015-Aug-31 03:28N 53°22' E 001°47'1 1.1
2015-Aug-31 02:33N 53°21' E 001°47'2 1.0
2015-Aug-31 00:33N 53°23' E 001°49'2 0.5
2015-Aug-30 21:32N 53°23' E 001°51'3 0.5
2015-Aug-30 15:28N 53°24' E 001°47'0 0.0
2015-Aug-30 14:33N 53°24' E 001°47'0 0.4
2015-Aug-30 13:33N 53°25' E 001°47'1 1.1
2015-Aug-30 12:31N 53°26' E 001°47'1 1.0
2015-Aug-30 11:06N 53°27' E 001°49'0 0.3
2015-Aug-30 10:05N 53°27' E 001°49'0 0.4
2015-Aug-30 09:32N 53°27' E 001°49'2 0.6
2015-Aug-30 05:24N 53°25' E 001°46'4 1.9
2015-Aug-30 03:30N 53°27' E 001°41'3 2.7
2015-Aug-30 02:33N 53°29' E 001°38'55 5.4
2015-Aug-29 16:27N 54°19' E 001°02'10 9.0
2015-Aug-29 15:24N 54°26' E 000°50'7 8.7
2015-Aug-29 14:33N 54°30' E 000°40'8 8.5
2015-Aug-29 13:33N 54°35' E 000°29'2 1.2
2015-Aug-29 12:10N 54°36' E 000°26'1 1.0
2015-Aug-29 11:33N 54°36' E 000°27'1 1.3
2015-Aug-29 10:33N 54°37' E 000°25'1 0.7
2015-Aug-29 09:33N 54°37' E 000°26'1 1.0
2015-Aug-29 08:33N 54°37' E 000°27'84 8.1
2015-Aug-28 22:08N 53°21' E 001°28'712.8
2015-Aug-28 21:33N 53°14' E 001°28'1212.0
2015-Aug-28 20:33N 53°02' E 001°28'1110.5
2015-Aug-28 19:33N 52°53' E 001°37'10 9.7
2015-Aug-28 18:33N 52°44' E 001°45'8 8.4
2015-Aug-28 17:33N 52°36' E 001°46'1 1.4
2015-Aug-28 16:33N 52°35' E 001°44'0 0.0
2015-Aug-28 15:33N 52°35' E 001°44'0 0.0
2015-Aug-28 14:33N 52°35' E 001°44'0 0.0
2015-Aug-28 13:33N 52°35' E 001°44'0 0.0
2015-Aug-28 12:33N 52°35' E 001°44'0 0.0
2015-Aug-28 11:33N 52°35' E 001°44'1 0.5
2015-Aug-28 10:33N 52°35' E 001°44'0 0.0
2015-Aug-28 09:33N 52°35' E 001°44'0 0.0
2015-Aug-28 08:33N 52°35' E 001°44'0 0.0
2015-Aug-28 07:33N 52°35' E 001°44'0 0.0
2015-Aug-28 06:33N 52°35' E 001°44'0 0.0
2015-Aug-28 05:33N 52°35' E 001°44'0 0.0
2015-Aug-28 04:33N 52°35' E 001°44'0 0.0
2015-Aug-28 03:33N 52°35' E 001°44'0 0.0
2015-Aug-28 02:33N 52°35' E 001°44'0 0.0
2015-Aug-28 01:33N 52°35' E 001°44'0 0.0
2015-Aug-28 00:33N 52°35' E 001°44'0 0.0
2015-Aug-27 23:33N 52°35' E 001°44'0 0.0
2015-Aug-27 22:33N 52°35' E 001°44'0 0.0
2015-Aug-27 21:33N 52°35' E 001°44'0 0.0
2015-Aug-27 20:33N 52°35' E 001°44'0 0.0
2015-Aug-27 19:33N 52°35' E 001°44'0 0.0
2015-Aug-27 18:33N 52°35' E 001°44'0 0.0
2015-Aug-27 17:33N 52°35' E 001°44'0 0.0
2015-Aug-27 16:33N 52°35' E 001°44'0 0.0
2015-Aug-27 15:33N 52°35' E 001°44'0 0.0
2015-Aug-27 14:33N 52°35' E 001°44'0 0.0
2015-Aug-27 13:33N 52°35' E 001°44'0 0.0
2015-Aug-27 12:33N 52°35' E 001°44'0 0.0
2015-Aug-27 11:33N 52°35' E 001°44'0 0.0
2015-Aug-27 10:33N 52°35' E 001°44'0 0.0
2015-Aug-27 09:32N 52°35' E 001°44'0 0.0
2015-Aug-27 08:32N 52°35' E 001°44'0 0.0
2015-Aug-27 07:32N 52°35' E 001°44'0 0.0
2015-Aug-27 06:32N 52°35' E 001°44'0 0.0
2015-Aug-27 05:32N 52°35' E 001°44'0 0.0
2015-Aug-27 04:32N 52°35' E 001°44'0 0.0
2015-Aug-27 03:32N 52°35' E 001°44'0 0.0
2015-Aug-27 02:32N 52°35' E 001°44'0 0.0
2015-Aug-27 01:32N 52°35' E 001°44'0 0.0
2015-Aug-27 00:32N 52°35' E 001°44'0 0.0
2015-Aug-26 23:32N 52°35' E 001°44'0 0.0
2015-Aug-26 22:32N 52°35' E 001°44'0 0.0
2015-Aug-26 21:32N 52°35' E 001°44'0 0.0
2015-Aug-26 20:32N 52°35' E 001°44'0 0.0
2015-Aug-26 19:32N 52°35' E 001°44'0 0.0
2015-Aug-26 18:32N 52°35' E 001°44'0 0.0
2015-Aug-26 17:32N 52°35' E 001°44'0 0.0
2015-Aug-26 16:32N 52°35' E 001°44'0 0.0
2015-Aug-26 15:32N 52°35' E 001°44'0 0.0
2015-Aug-26 14:32N 52°35' E 001°44'0 0.0
2015-Aug-26 13:32N 52°35' E 001°44'0 0.0
2015-Aug-26 12:32N 52°35' E 001°44'0 0.2
2015-Aug-26 11:33N 52°35' E 001°44'0 0.0
2015-Aug-26 10:33N 52°35' E 001°44'0 0.0
2015-Aug-26 09:33N 52°35' E 001°44'0 0.0
2015-Aug-26 08:33N 52°35' E 001°44'0 0.0
2015-Aug-26 07:33N 52°35' E 001°44'0 0.0
2015-Aug-26 06:33N 52°35' E 001°44'0 0.0
2015-Aug-26 05:33N 52°35' E 001°44'0 0.0
2015-Aug-26 04:33N 52°35' E 001°44'0 0.0
2015-Aug-26 03:33N 52°35' E 001°44'0 0.0
2015-Aug-26 02:33N 52°35' E 001°44'0 0.0
2015-Aug-26 01:33N 52°35' E 001°44'0 0.0
2015-Aug-26 00:33N 52°35' E 001°44'0 0.0
2015-Aug-25 23:33N 52°35' E 001°44'0 0.0
2015-Aug-25 22:33N 52°35' E 001°44'0 0.0
2015-Aug-25 21:33N 52°35' E 001°44'0 0.0
2015-Aug-25 20:33N 52°35' E 001°44'0 0.0
2015-Aug-25 19:33N 52°35' E 001°44'0 0.0
2015-Aug-25 18:33N 52°35' E 001°44'0 0.0
2015-Aug-25 17:33N 52°35' E 001°44'0 0.0
2015-Aug-25 16:18N 52°35' E 001°44'0 0.0
2015-Aug-25 15:15N 52°35' E 001°44'0 0.0
2015-Aug-25 14:33N 52°35' E 001°44'0 0.0
2015-Aug-25 13:33N 52°35' E 001°44'0 0.0
2015-Aug-25 12:33N 52°35' E 001°44'0 0.3
2015-Aug-25 11:33N 52°35' E 001°44'0 0.0
2015-Aug-25 10:32N 52°35' E 001°44'0 0.0
2015-Aug-25 09:34N 52°35' E 001°44'1 1.3
2015-Aug-25 08:33N 52°36' E 001°46'6 6.4
2015-Aug-25 07:33N 52°42' E 001°47'4 4.0
2015-Aug-25 06:33N 52°46' E 001°44'4 3.5
2015-Aug-25 05:33N 52°49' E 001°41'4 4.5
2015-Aug-25 04:33N 52°52' E 001°37'7 7.5
2015-Aug-25 03:33N 52°59' E 001°31'8 7.5
2015-Aug-25 02:33N 53°06' E 001°28'8 7.8
2015-Aug-25 01:33N 53°14' E 001°28'61 7.5
2015-Aug-24 17:30N 54°14' E 001°09'7 7.3
2015-Aug-24 16:32N 54°20' E 001°02'7 7.2
2015-Aug-24 15:33N 54°25' E 000°54'7 7.5
2015-Aug-24 14:34N 54°29' E 000°43'7 7.4
2015-Aug-24 13:33N 54°33' E 000°33'5 4.7
2015-Aug-24 12:32N 54°36' E 000°26'0 0.0
2015-Aug-24 10:30N 54°36' E 000°26'2 2.2
2015-Aug-24 09:24N 54°35' E 000°30'1 1.5
2015-Aug-24 08:33N 54°36' E 000°28'4 1.3
2015-Aug-24 05:18N 54°34' E 000°34'2 3.0
2015-Aug-24 04:30N 54°35' E 000°31'3 2.8
2015-Aug-24 03:33N 54°37' E 000°27'3 2.7
2015-Aug-24 02:33N 54°38' E 000°23'3 2.8
2015-Aug-24 01:33N 54°40' E 000°19'3 2.7
2015-Aug-24 00:34N 54°41' E 000°15'3 2.6
2015-Aug-23 23:34N 54°43' E 000°12'22 4.2
2015-Aug-23 18:18N 54°30' E 000°43'27 7.3
2015-Aug-23 14:33N 54°09' E 001°13'7 7.0
2015-Aug-23 13:32N 54°03' E 001°20'7 7.4
2015-Aug-23 12:33N 53°56' E 001°24'7 7.2
2015-Aug-23 11:33N 53°49' E 001°25'5 5.5
2015-Aug-23 10:33N 53°43' E 001°27'5 4.5
2015-Aug-23 09:30N 53°39' E 001°28'4 4.1
2015-Aug-23 08:33N 53°35' E 001°30'1312.0
2015-Aug-23 07:30N 53°26' E 001°44'2 2.5
2015-Aug-23 06:33N 53°24' E 001°47'5 4.5
2015-Aug-23 05:33N 53°26' E 001°40'2 2.1
2015-Aug-23 04:32N 53°26' E 001°36'0 0.5
2015-Aug-23 03:33N 53°27' E 001°36'1 1.1
2015-Aug-23 02:33N 53°28' E 001°35'2 1.7
2015-Aug-23 01:33N 53°29' E 001°33'2 2.1
2015-Aug-23 00:33N 53°30' E 001°30'1 0.8
2015-Aug-22 23:33N 53°31' E 001°31'1 0.6
2015-Aug-22 22:33N 53°31' E 001°32'1 0.7
2015-Aug-22 21:33N 53°31' E 001°33'1 0.9
2015-Aug-22 20:33N 53°31' E 001°34'1 1.2
2015-Aug-22 19:33N 53°30' E 001°36'2 1.7
2015-Aug-22 18:33N 53°29' E 001°38'2 2.0
2015-Aug-22 17:31N 53°27' E 001°40'2 1.9
2015-Aug-22 16:33N 53°26' E 001°42'4 3.5
2015-Aug-22 15:33N 53°26' E 001°48'2 2.0
2015-Aug-22 14:33N 53°24' E 001°50'0 0.1
2015-Aug-22 13:33N 53°24' E 001°50'0 0.4
2015-Aug-22 12:33N 53°24' E 001°50'0 0.3
2015-Aug-22 11:33N 53°24' E 001°49'1 1.4
2015-Aug-22 10:33N 53°24' E 001°47'0 0.0
2015-Aug-22 08:33N 53°24' E 001°47'0 0.5
2015-Aug-22 07:33N 53°25' E 001°47'0 0.5
2015-Aug-22 06:33N 53°24' E 001°47'1 0.6
2015-Aug-22 05:33N 53°25' E 001°47'1 1.2
2015-Aug-22 04:34N 53°25' E 001°45'4 4.1
2015-Aug-22 03:32N 53°24' E 001°38'5 4.9
2015-Aug-22 02:33N 53°22' E 001°30'6 5.9
2015-Aug-22 01:33N 53°16' E 001°28'8 8.5
2015-Aug-22 00:33N 53°08' E 001°28'8 7.6
2015-Aug-21 23:33N 53°00' E 001°31'7 7.2
2015-Aug-21 22:33N 52°54' E 001°36'7 7.2
2015-Aug-21 21:33N 52°47' E 001°42'7 7.2
2015-Aug-21 20:33N 52°41' E 001°46'6 5.9
2015-Aug-21 19:33N 52°35' E 001°44'0 0.1
2015-Aug-21 18:33N 52°35' E 001°44'1 0.5
2015-Aug-21 17:31N 52°36' E 001°44'0 0.0
2015-Aug-21 16:31N 52°36' E 001°44'0 0.0
2015-Aug-21 15:31N 52°36' E 001°44'0 0.0
2015-Aug-21 14:31N 52°36' E 001°44'0 0.0
2015-Aug-21 13:28N 52°36' E 001°44'0 0.0
2015-Aug-21 12:31N 52°36' E 001°44'0 0.0
2015-Aug-21 11:31N 52°36' E 001°44'0 0.0
2015-Aug-21 10:31N 52°36' E 001°44'0 0.0
2015-Aug-21 09:31N 52°36' E 001°44'0 0.0
2015-Aug-21 08:31N 52°36' E 001°44'0 0.0
2015-Aug-21 07:31N 52°36' E 001°44'0 0.0
2015-Aug-21 06:31N 52°36' E 001°44'0 0.0
2015-Aug-21 05:31N 52°36' E 001°44'0 0.0
2015-Aug-21 04:31N 52°36' E 001°44'0 0.0
2015-Aug-21 03:31N 52°36' E 001°44'  
Track history (hours):
 
Tides and Currents Weather Stations Pressure Air Temp Water Temp Dewpoint Dewpoint Depression Visibility Wind Speed Wind Dir Waves Ship Positions

Malaviya Twenty

Last reported at 2015-Aug-31 03:28 UTC. Time now 2015-Sep-01 01:50 UTC.
Position N 53°22' E 001°47'.

Length 72 m; draft 4.2 m.

Type: Ship. MMSI: 419504000.

Date/timePositionNaut miles runAvg speedWind from/ knotsBaromVisibWave heightAir tempDewpointWater temp
2015-Aug-31 03:28N 53°22' E 001°47'1 1.1
2015-Aug-31 02:33N 53°21' E 001°47'2 1.0
2015-Aug-31 00:33N 53°23' E 001°49'2 0.5
2015-Aug-30 21:32N 53°23' E 001°51'3 0.5
2015-Aug-30 15:28N 53°24' E 001°47'0 0.0
2015-Aug-30 14:33N 53°24' E 001°47'0 0.4
2015-Aug-30 13:33N 53°25' E 001°47'1 1.1
2015-Aug-30 12:31N 53°26' E 001°47'1 1.0
2015-Aug-30 11:06N 53°27' E 001°49'0 0.3
2015-Aug-30 10:05N 53°27' E 001°49'0 0.4
2015-Aug-30 09:32N 53°27' E 001°49'2 0.6
2015-Aug-30 05:24N 53°25' E 001°46'4 1.9
2015-Aug-30 03:30N 53°27' E 001°41'3 2.7
2015-Aug-30 02:33N 53°29' E 001°38'55 5.4
2015-Aug-29 16:27N 54°19' E 001°02'10 9.0
2015-Aug-29 15:24N 54°26' E 000°50'7 8.7
2015-Aug-29 14:33N 54°30' E 000°40'8 8.5
2015-Aug-29 13:33N 54°35' E 000°29'2 1.2
2015-Aug-29 12:10N 54°36' E 000°26'1 1.0
2015-Aug-29 11:33N 54°36' E 000°27'1 1.3
2015-Aug-29 10:33N 54°37' E 000°25'1 0.7
2015-Aug-29 09:33N 54°37' E 000°26'1 1.0
2015-Aug-29 08:33N 54°37' E 000°27'84 8.1
2015-Aug-28 22:08N 53°21' E 001°28'712.8
2015-Aug-28 21:33N 53°14' E 001°28'1212.0
2015-Aug-28 20:33N 53°02' E 001°28'1110.5
2015-Aug-28 19:33N 52°53' E 001°37'10 9.7
2015-Aug-28 18:33N 52°44' E 001°45'8 8.4
2015-Aug-28 17:33N 52°36' E 001°46'1 1.4
2015-Aug-28 16:33N 52°35' E 001°44'0 0.0
2015-Aug-28 15:33N 52°35' E 001°44'0 0.0
2015-Aug-28 14:33N 52°35' E 001°44'0 0.0
2015-Aug-28 13:33N 52°35' E 001°44'0 0.0
2015-Aug-28 12:33N 52°35' E 001°44'0 0.0
2015-Aug-28 11:33N 52°35' E 001°44'1 0.5
2015-Aug-28 10:33N 52°35' E 001°44'0 0.0
2015-Aug-28 09:33N 52°35' E 001°44'0 0.0
2015-Aug-28 08:33N 52°35' E 001°44'0 0.0
2015-Aug-28 07:33N 52°35' E 001°44'0 0.0
2015-Aug-28 06:33N 52°35' E 001°44'0 0.0
2015-Aug-28 05:33N 52°35' E 001°44'0 0.0
2015-Aug-28 04:33N 52°35' E 001°44'0 0.0
2015-Aug-28 03:33N 52°35' E 001°44'0 0.0
2015-Aug-28 02:33N 52°35' E 001°44'0 0.0
2015-Aug-28 01:33N 52°35' E 001°44'0 0.0
2015-Aug-28 00:33N 52°35' E 001°44'0 0.0
2015-Aug-27 23:33N 52°35' E 001°44'0 0.0
2015-Aug-27 22:33N 52°35' E 001°44'0 0.0
2015-Aug-27 21:33N 52°35' E 001°44'0 0.0
2015-Aug-27 20:33N 52°35' E 001°44'0 0.0
2015-Aug-27 19:33N 52°35' E 001°44'0 0.0
2015-Aug-27 18:33N 52°35' E 001°44'0 0.0
2015-Aug-27 17:33N 52°35' E 001°44'0 0.0
2015-Aug-27 16:33N 52°35' E 001°44'0 0.0
2015-Aug-27 15:33N 52°35' E 001°44'0 0.0
2015-Aug-27 14:33N 52°35' E 001°44'0 0.0
2015-Aug-27 13:33N 52°35' E 001°44'0 0.0
2015-Aug-27 12:33N 52°35' E 001°44'0 0.0
2015-Aug-27 11:33N 52°35' E 001°44'0 0.0
2015-Aug-27 10:33N 52°35' E 001°44'0 0.0
2015-Aug-27 09:32N 52°35' E 001°44'0 0.0
2015-Aug-27 08:32N 52°35' E 001°44'0 0.0
2015-Aug-27 07:32N 52°35' E 001°44'0 0.0
2015-Aug-27 06:32N 52°35' E 001°44'0 0.0
2015-Aug-27 05:32N 52°35' E 001°44'0 0.0
2015-Aug-27 04:32N 52°35' E 001°44'0 0.0
2015-Aug-27 03:32N 52°35' E 001°44'0 0.0
2015-Aug-27 02:32N 52°35' E 001°44'0 0.0
2015-Aug-27 01:32N 52°35' E 001°44'0 0.0
2015-Aug-27 00:32N 52°35' E 001°44'0 0.0
2015-Aug-26 23:32N 52°35' E 001°44'0 0.0
2015-Aug-26 22:32N 52°35' E 001°44'0 0.0
2015-Aug-26 21:32N 52°35' E 001°44'0 0.0
2015-Aug-26 20:32N 52°35' E 001°44'0 0.0
2015-Aug-26 19:32N 52°35' E 001°44'0 0.0
2015-Aug-26 18:32N 52°35' E 001°44'0 0.0
2015-Aug-26 17:32N 52°35' E 001°44'0 0.0
2015-Aug-26 16:32N 52°35' E 001°44'0 0.0
2015-Aug-26 15:32N 52°35' E 001°44'0 0.0
2015-Aug-26 14:32N 52°35' E 001°44'0 0.0
2015-Aug-26 13:32N 52°35' E 001°44'0 0.0
2015-Aug-26 12:32N 52°35' E 001°44'0 0.2
2015-Aug-26 11:33N 52°35' E 001°44'0 0.0
2015-Aug-26 10:33N 52°35' E 001°44'0 0.0
2015-Aug-26 09:33N 52°35' E 001°44'0 0.0
2015-Aug-26 08:33N 52°35' E 001°44'0 0.0
2015-Aug-26 07:33N 52°35' E 001°44'0 0.0
2015-Aug-26 06:33N 52°35' E 001°44'0 0.0
2015-Aug-26 05:33N 52°35' E 001°44'0 0.0
2015-Aug-26 04:33N 52°35' E 001°44'0 0.0
2015-Aug-26 03:33N 52°35' E 001°44'0 0.0
2015-Aug-26 02:33N 52°35' E 001°44'0 0.0
2015-Aug-26 01:33N 52°35' E 001°44'0 0.0
2015-Aug-26 00:33N 52°35' E 001°44'0 0.0
2015-Aug-25 23:33N 52°35' E 001°44'0 0.0
2015-Aug-25 22:33N 52°35' E 001°44'0 0.0
2015-Aug-25 21:33N 52°35' E 001°44'0 0.0
2015-Aug-25 20:33N 52°35' E 001°44'0 0.0
2015-Aug-25 19:33N 52°35' E 001°44'0 0.0
2015-Aug-25 18:33N 52°35' E 001°44'0 0.0
2015-Aug-25 17:33N 52°35' E 001°44'0 0.0
2015-Aug-25 16:18N 52°35' E 001°44'0 0.0
2015-Aug-25 15:15N 52°35' E 001°44'0 0.0
2015-Aug-25 14:33N 52°35' E 001°44'0 0.0
2015-Aug-25 13:33N 52°35' E 001°44'0 0.0
2015-Aug-25 12:33N 52°35' E 001°44'0 0.3
2015-Aug-25 11:33N 52°35' E 001°44'0 0.0
2015-Aug-25 10:32N 52°35' E 001°44'0 0.0
2015-Aug-25 09:34N 52°35' E 001°44'1 1.3
2015-Aug-25 08:33N 52°36' E 001°46'6 6.4
2015-Aug-25 07:33N 52°42' E 001°47'4 4.0
2015-Aug-25 06:33N 52°46' E 001°44'4 3.5
2015-Aug-25 05:33N 52°49' E 001°41'4 4.5
2015-Aug-25 04:33N 52°52' E 001°37'7 7.5
2015-Aug-25 03:33N 52°59' E 001°31'8 7.5
2015-Aug-25 02:33N 53°06' E 001°28'8 7.8
2015-Aug-25 01:33N 53°14' E 001°28'61 7.5
2015-Aug-24 17:30N 54°14' E 001°09'7 7.3
2015-Aug-24 16:32N 54°20' E 001°02'7 7.2
2015-Aug-24 15:33N 54°25' E 000°54'7 7.5
2015-Aug-24 14:34N 54°29' E 000°43'7 7.4
2015-Aug-24 13:33N 54°33' E 000°33'5 4.7
2015-Aug-24 12:32N 54°36' E 000°26'0 0.0
2015-Aug-24 10:30N 54°36' E 000°26'2 2.2
2015-Aug-24 09:24N 54°35' E 000°30'1 1.5
2015-Aug-24 08:33N 54°36' E 000°28'4 1.3
2015-Aug-24 05:18N 54°34' E 000°34'2 3.0
2015-Aug-24 04:30N 54°35' E 000°31'3 2.8
2015-Aug-24 03:33N 54°37' E 000°27'3 2.7
2015-Aug-24 02:33N 54°38' E 000°23'3 2.8
2015-Aug-24 01:33N 54°40' E 000°19'3 2.7
2015-Aug-24 00:34N 54°41' E 000°15'3 2.6
2015-Aug-23 23:34N 54°43' E 000°12'22 4.2
2015-Aug-23 18:18N 54°30' E 000°43'27 7.3
2015-Aug-23 14:33N 54°09' E 001°13'7 7.0
2015-Aug-23 13:32N 54°03' E 001°20'7 7.4
2015-Aug-23 12:33N 53°56' E 001°24'7 7.2
2015-Aug-23 11:33N 53°49' E 001°25'5 5.5
2015-Aug-23 10:33N 53°43' E 001°27'5 4.5
2015-Aug-23 09:30N 53°39' E 001°28'4 4.1
2015-Aug-23 08:33N 53°35' E 001°30'1312.0
2015-Aug-23 07:30N 53°26' E 001°44'2 2.5
2015-Aug-23 06:33N 53°24' E 001°47'5 4.5
2015-Aug-23 05:33N 53°26' E 001°40'2 2.1
2015-Aug-23 04:32N 53°26' E 001°36'0 0.5
2015-Aug-23 03:33N 53°27' E 001°36'1 1.1
2015-Aug-23 02:33N 53°28' E 001°35'2 1.7
2015-Aug-23 01:33N 53°29' E 001°33'2 2.1
2015-Aug-23 00:33N 53°30' E 001°30'1 0.8
2015-Aug-22 23:33N 53°31' E 001°31'1 0.6
2015-Aug-22 22:33N 53°31' E 001°32'1 0.7
2015-Aug-22 21:33N 53°31' E 001°33'1 0.9
2015-Aug-22 20:33N 53°31' E 001°34'1 1.2
2015-Aug-22 19:33N 53°30' E 001°36'2 1.7
2015-Aug-22 18:33N 53°29' E 001°38'2 2.0
2015-Aug-22 17:31N 53°27' E 001°40'2 1.9
2015-Aug-22 16:33N 53°26' E 001°42'4 3.5
2015-Aug-22 15:33N 53°26' E 001°48'2 2.0
2015-Aug-22 14:33N 53°24' E 001°50'0 0.1
2015-Aug-22 13:33N 53°24' E 001°50'0 0.4
2015-Aug-22 12:33N 53°24' E 001°50'0 0.3
2015-Aug-22 11:33N 53°24' E 001°49'1 1.4
2015-Aug-22 10:33N 53°24' E 001°47'0 0.0
2015-Aug-22 08:33N 53°24' E 001°47'0 0.5
2015-Aug-22 07:33N 53°25' E 001°47'0 0.5
2015-Aug-22 06:33N 53°24' E 001°47'1 0.6
2015-Aug-22 05:33N 53°25' E 001°47'1 1.2
2015-Aug-22 04:34N 53°25' E 001°45'4 4.1
2015-Aug-22 03:32N 53°24' E 001°38'5 4.9
2015-Aug-22 02:33N 53°22' E 001°30'6 5.9
2015-Aug-22 01:33N 53°16' E 001°28'8 8.5
2015-Aug-22 00:33N 53°08' E 001°28'8 7.6
2015-Aug-21 23:33N 53°00' E 001°31'7 7.2
2015-Aug-21 22:33N 52°54' E 001°36'7 7.2
2015-Aug-21 21:33N 52°47' E 001°42'7 7.2
2015-Aug-21 20:33N 52°41' E 001°46'6 5.9
2015-Aug-21 19:33N 52°35' E 001°44'0 0.1
2015-Aug-21 18:33N 52°35' E 001°44'1 0.5
2015-Aug-21 17:31N 52°36' E 001°44'0 0.0
2015-Aug-21 16:31N 52°36' E 001°44'0 0.0
2015-Aug-21 15:31N 52°36' E 001°44'0 0.0
2015-Aug-21 14:31N 52°36' E 001°44'0 0.0
2015-Aug-21 13:28N 52°36' E 001°44'0 0.0
2015-Aug-21 12:31N 52°36' E 001°44'0 0.0
2015-Aug-21 11:31N 52°36' E 001°44'0 0.0
2015-Aug-21 10:31N 52°36' E 001°44'0 0.0
2015-Aug-21 09:31N 52°36' E 001°44'0 0.0
2015-Aug-21 08:31N 52°36' E 001°44'0 0.0
2015-Aug-21 07:31N 52°36' E 001°44'0 0.0
2015-Aug-21 06:31N 52°36' E 001°44'0 0.0
2015-Aug-21 05:31N 52°36' E 001°44'0 0.0
2015-Aug-21 04:31N 52°36' E 001°44'0 0.0
2015-Aug-21 03:31N 52°36' E 001°44'  

Dump ship's entire track history